Time;durP1;ratioP1;P1;durP2;ratioP2;P2;SDS_P1;SDS_P2;PMS_P1;PMS_P2;Temp;Humidity;BMP_temperature;BMP_pressure;BME280_temperature;BME280_humidity;BME280_pressure;Samples;Min_cycle;Max_cycle;Signal;HPM_P1;HPM_P2
2023/07/17 00:00:15;;;;;;;4.13;2.20;;;16.90;99.90;;;;;;5083276;28;20106;-78
2023/07/17 00:02:42;;;;;;;2.63;2.35;;;16.90;99.90;;;;;;5108578;28;20046;-78
2023/07/17 00:05:12;;;;;;;3.42;2.67;;;16.90;99.90;;;;;;5105472;28;20120;-79
2023/07/17 00:07:39;;;;;;;5.03;2.47;;;16.90;99.90;;;;;;5094811;28;20141;-79
2023/07/17 00:10:07;;;;;;;4.40;2.30;;;16.90;99.90;;;;;;5096924;28;20510;-78
2023/07/17 00:12:32;;;;;;;4.70;2.20;;;16.90;99.90;;;;;;5093566;28;20044;-78
2023/07/17 00:14:58;;;;;;;4.13;2.28;;;16.90;99.90;;;;;;5095941;28;20050;-79
2023/07/17 00:17:24;;;;;;;4.90;2.40;;;17.20;99.90;;;;;;5108544;28;20048;-79
2023/07/17 00:19:59;;;;;;;4.40;2.50;;;16.90;99.90;;;;;;5099829;28;20044;-79
2023/07/17 00:22:25;;;;;;;3.83;2.33;;;17.00;99.90;;;;;;5096913;28;20035;-78
2023/07/17 00:24:51;;;;;;;4.30;2.13;;;17.30;99.90;;;;;;5098779;28;20355;-79
2023/07/17 00:27:17;;;;;;;5.32;2.75;;;17.00;99.90;;;;;;5098645;28;20044;-79
2023/07/17 00:29:45;;;;;;;2.72;2.20;;;17.00;99.90;;;;;;5094643;28;20039;-80
2023/07/17 00:32:12;;;;;;;6.95;2.50;;;17.00;99.90;;;;;;5100481;28;20059;-79
2023/07/17 00:34:39;;;;;;;4.03;2.25;;;17.10;99.90;;;;;;5081722;28;20044;-80
2023/07/17 00:37:05;;;;;;;3.05;2.10;;;17.10;99.90;;;;;;5096566;28;20420;-80
2023/07/17 00:39:30;;;;;;;3.85;2.28;;;17.70;99.90;;;;;;5102592;28;20053;-80
2023/07/17 00:41:57;;;;;;;6.03;2.60;;;16.80;99.90;;;;;;5091184;28;20036;-80
2023/07/17 00:44:23;;;;;;;5.15;2.60;;;17.60;99.90;;;;;;5098332;28;20383;-82
2023/07/17 00:46:49;;;;;;;6.15;2.30;;;17.00;99.90;;;;;;5080096;28;20043;-80
2023/07/17 00:49:16;;;;;;;3.97;2.13;;;17.00;99.90;;;;;;5088717;28;20052;-80
2023/07/17 00:51:43;;;;;;;6.32;2.20;;;16.90;99.90;;;;;;5071384;28;20478;-79
2023/07/17 00:54:10;;;;;;;3.50;2.00;;;16.80;99.90;;;;;;5101771;28;20040;-80
2023/07/17 00:56:36;;;;;;;5.43;2.10;;;16.70;99.90;;;;;;5100482;28;20404;-79
2023/07/17 00:59:03;;;;;;;4.03;2.50;;;16.60;99.90;;;;;;5096003;28;20121;-80
2023/07/17 01:01:29;;;;;;;6.43;2.72;;;16.60;99.90;;;;;;5094693;28;20055;-78
2023/07/17 01:03:57;;;;;;;5.32;2.63;;;16.50;99.90;;;;;;5095382;28;20040;-79
2023/07/17 01:06:26;;;;;;;6.28;2.40;;;16.40;99.90;;;;;;5095111;28;20166;-78
2023/07/17 01:08:51;;;;;;;5.55;2.17;;;16.40;99.90;;;;;;5095972;28;20147;-78
2023/07/17 01:11:17;;;;;;;4.30;2.47;;;16.40;99.90;;;;;;5095636;28;20553;-78
2023/07/17 01:13:50;;;;;;;5.88;2.72;;;16.30;99.90;;;;;;5100257;28;20120;-79
2023/07/17 01:16:15;;;;;;;;;;;16.30;99.90;;;;;;5101861;28;20097;-79
2023/07/17 01:18:41;;;;;;;6.13;2.75;;;16.20;99.90;;;;;;5095377;28;19926;-78
2023/07/17 01:21:12;;;;;;;5.55;2.53;;;16.20;99.90;;;;;;5078817;28;20048;-79
2023/07/17 01:23:38;;;;;;;5.00;2.43;;;16.20;99.90;;;;;;5100254;28;20071;-79
2023/07/17 01:26:17;;;;;;;5.90;2.20;;;16.20;99.90;;;;;;5099555;28;20322;-78
2023/07/17 01:28:44;;;;;;;4.47;2.38;;;16.20;99.90;;;;;;5099893;28;20100;-78
2023/07/17 01:31:10;;;;;;;6.15;2.20;;;16.20;99.90;;;;;;5099381;28;20040;-79
2023/07/17 01:33:36;;;;;;;4.05;1.90;;;16.10;99.90;;;;;;5090810;28;20073;-79
2023/07/17 01:36:04;;;;;;;4.90;1.65;;;16.10;99.90;;;;;;5099262;28;20070;-78
2023/07/17 01:38:30;;;;;;;4.45;1.90;;;16.10;99.90;;;;;;5102026;28;20464;-80
2023/07/17 01:40:55;;;;;;;4.22;2.05;;;16.10;99.90;;;;;;5092028;28;20120;-79
2023/07/17 01:43:21;;;;;;;5.38;1.88;;;16.10;99.90;;;;;;5092426;28;20049;-78
2023/07/17 01:45:47;;;;;;;3.95;1.85;;;16.10;99.90;;;;;;5101593;28;20047;-79
2023/07/17 01:48:14;;;;;;;4.15;2.00;;;16.00;99.90;;;;;;5100616;28;20063;-79
2023/07/17 01:50:41;;;;;;;5.15;1.98;;;16.00;99.90;;;;;;5096604;28;20126;-78
2023/07/17 01:53:07;;;;;;;4.32;2.00;;;16.00;99.90;;;;;;5087840;28;20060;-79
2023/07/17 01:55:32;;;;;;;3.85;1.80;;;16.00;99.90;;;;;;5095768;28;20054;-78
2023/07/17 01:57:58;;;;;;;5.55;1.80;;;16.20;99.90;;;;;;5088441;28;20122;-79
2023/07/17 02:00:24;;;;;;;4.68;2.03;;;15.90;99.90;;;;;;5099051;28;20043;-79
2023/07/17 02:02:49;;;;;;;3.25;1.73;;;15.90;99.90;;;;;;5104238;28;21619;-80
2023/07/17 02:05:15;;;;;;;4.38;1.80;;;15.90;99.90;;;;;;5094089;28;20448;-78
2023/07/17 02:07:40;;;;;;;5.07;1.77;;;15.90;99.90;;;;;;5091887;28;20391;-79
2023/07/17 02:10:07;;;;;;;3.63;1.80;;;15.90;99.90;;;;;;5077968;28;20474;-79
2023/07/17 02:12:33;;;;;;;3.22;1.77;;;15.80;99.90;;;;;;5075963;28;20127;-79
2023/07/17 02:14:58;;;;;;;4.18;1.77;;;15.80;99.90;;;;;;5101264;28;20513;-79
2023/07/17 02:17:24;;;;;;;5.00;2.08;;;15.80;99.90;;;;;;5101210;28;20048;-78
2023/07/17 02:19:49;;;;;;;4.28;2.05;;;15.80;99.90;;;;;;5093405;28;20088;-79
2023/07/17 02:22:15;;;;;;;5.22;1.85;;;15.80;99.90;;;;;;5101139;28;20048;-78
2023/07/17 02:24:41;;;;;;;3.20;1.90;;;15.80;99.90;;;;;;5091266;28;20055;-79
2023/07/17 02:27:06;;;;;;;5.13;2.08;;;15.80;99.90;;;;;;5072801;28;20478;-78
2023/07/17 02:29:32;;;;;;;4.72;2.03;;;15.80;99.90;;;;;;5101452;28;20148;-79
2023/07/17 02:31:58;;;;;;;5.75;1.95;;;15.80;99.90;;;;;;5076197;28;20036;-79
2023/07/17 02:34:23;;;;;;;7.00;2.30;;;15.70;99.90;;;;;;5098175;28;20044;-79
2023/07/17 02:36:49;;;;;;;5.95;2.10;;;15.70;99.90;;;;;;5091478;28;20354;-79
2023/07/17 02:39:14;;;;;;;6.47;2.05;;;16.10;99.90;;;;;;5101026;28;20036;-79
2023/07/17 02:41:40;;;;;;;7.03;2.60;;;15.80;99.90;;;;;;5091016;28;20043;-79
2023/07/17 02:44:05;;;;;;;7.65;2.45;;;15.60;99.90;;;;;;5097775;28;20131;-79
2023/07/17 02:46:31;;;;;;;8.48;2.42;;;15.60;99.90;;;;;;5096751;28;20138;-79
2023/07/17 02:48:56;;;;;;;8.07;2.70;;;15.60;99.90;;;;;;5096120;28;20040;-79
2023/07/17 02:51:22;;;;;;;6.93;2.25;;;15.60;99.90;;;;;;5096848;28;20094;-79
2023/07/17 02:53:48;;;;;;;6.85;2.53;;;15.50;99.90;;;;;;5089366;28;20048;-79
2023/07/17 02:56:13;;;;;;;3.67;2.10;;;15.50;99.90;;;;;;5097009;28;20047;-78
2023/07/17 02:58:42;;;;;;;5.88;2.38;;;15.60;99.90;;;;;;5097043;28;20113;-79
2023/07/17 03:01:10;;;;;;;5.20;2.20;;;15.50;99.90;;;;;;5095097;28;20553;-79
2023/07/17 03:03:37;;;;;;;6.50;2.50;;;15.60;99.90;;;;;;5101717;28;20036;-79
2023/07/17 03:06:04;;;;;;;7.57;2.92;;;15.40;99.90;;;;;;5095494;28;20510;-78
2023/07/17 03:08:29;;;;;;;6.63;2.58;;;15.40;99.90;;;;;;5096248;28;20073;-79
2023/07/17 03:10:55;;;;;;;6.45;2.80;;;15.40;99.90;;;;;;5094642;28;20044;-79
2023/07/17 03:13:23;;;;;;;6.78;2.42;;;15.40;99.90;;;;;;5096783;28;20544;-79
2023/07/17 03:15:48;;;;;;;5.63;2.72;;;15.40;99.90;;;;;;5093305;28;20054;-78
2023/07/17 03:18:14;;;;;;;8.70;2.70;;;15.30;99.90;;;;;;5097514;28;20040;-78
2023/07/17 03:20:44;;;;;;;5.30;2.40;;;15.30;99.90;;;;;;5094500;28;20075;-79
2023/07/17 03:23:10;;;;;;;9.07;2.97;;;15.30;99.90;;;;;;5088749;28;20149;-78
2023/07/17 03:25:36;;;;;;;10.45;2.92;;;15.60;99.90;;;;;;5094271;28;20047;-78
2023/07/17 03:28:02;;;;;;;5.97;2.25;;;15.20;99.90;;;;;;5099497;28;20070;-78
2023/07/17 03:30:28;;;;;;;6.03;2.60;;;15.30;99.90;;;;;;5092210;28;20547;-78
2023/07/17 03:32:54;;;;;;;7.20;2.50;;;15.30;99.90;;;;;;5099894;28;20088;-79
2023/07/17 03:35:19;;;;;;;7.50;2.75;;;15.30;99.90;;;;;;5089683;28;20036;-78
2023/07/17 03:37:45;;;;;;;7.50;2.60;;;15.20;99.90;;;;;;5084184;28;20531;-78
2023/07/17 03:40:11;;;;;;;7.07;2.85;;;15.20;99.90;;;;;;5089058;28;20469;-79
2023/07/17 03:42:37;;;;;;;8.68;2.75;;;15.20;99.90;;;;;;5096153;28;20044;-79
2023/07/17 03:45:04;;;;;;;7.90;2.67;;;15.20;99.90;;;;;;5075284;28;20032;-79
2023/07/17 03:47:30;;;;;;;5.75;2.38;;;15.20;99.90;;;;;;5083795;28;20555;-79
2023/07/17 03:49:56;;;;;;;8.73;2.75;;;15.20;99.90;;;;;;5098335;28;20146;-79
2023/07/17 03:52:21;;;;;;;7.65;2.75;;;15.20;99.90;;;;;;5099735;28;20043;-78
2023/07/17 03:54:47;;;;;;;7.75;2.45;;;15.10;99.90;;;;;;5091617;28;20085;-79
2023/07/17 03:57:12;;;;;;;8.43;2.90;;;15.10;99.90;;;;;;5081772;28;20086;-79
2023/07/17 03:59:53;;;;;;;8.23;2.97;;;15.10;99.90;;;;;;5095994;28;20113;-79
2023/07/17 04:02:19;;;;;;;6.30;2.83;;;15.40;99.90;;;;;;5090003;28;20072;-79
2023/07/17 04:04:45;;;;;;;6.75;2.90;;;15.10;99.90;;;;;;5095885;28;20036;-79
2023/07/17 04:07:11;;;;;;;7.50;2.47;;;15.10;99.90;;;;;;5104255;28;20050;-79
2023/07/17 04:09:36;;;;;;;5.35;2.60;;;15.60;99.90;;;;;;5089266;28;20036;-79
2023/07/17 04:12:03;;;;;;;5.07;2.50;;;14.80;99.90;;;;;;5100953;28;20150;-79
2023/07/17 04:14:33;;;;;;;6.93;3.15;;;15.10;99.90;;;;;;5099904;28;20067;-79
2023/07/17 04:16:59;;;;;;;7.57;3.17;;;15.10;99.90;;;;;;5095697;28;20489;-78
2023/07/17 04:19:26;;;;;;;9.75;2.88;;;15.10;99.90;;;;;;5096052;28;20110;-79
2023/07/17 04:21:52;;;;;;;5.38;3.10;;;15.10;99.90;;;;;;5094623;28;20514;-78
2023/07/17 04:24:17;;;;;;;7.47;2.88;;;15.10;99.90;;;;;;5095641;28;20052;-79
2023/07/17 04:26:43;;;;;;;5.50;2.40;;;15.20;99.90;;;;;;5096783;28;20044;-79
2023/07/17 04:29:10;;;;;;;5.72;2.67;;;15.50;99.90;;;;;;5091279;28;20113;-79
2023/07/17 04:31:36;;;;;;;7.57;2.83;;;15.20;99.90;;;;;;5098812;28;20484;-78
2023/07/17 04:34:02;;;;;;;5.85;2.65;;;15.20;99.90;;;;;;5095789;28;20089;-80
2023/07/17 04:36:27;;;;;;;8.15;2.78;;;15.30;99.90;;;;;;5088729;28;20421;-79
2023/07/17 04:38:53;;;;;;;9.25;2.63;;;15.30;99.90;;;;;;5075790;28;20032;-79
2023/07/17 04:41:19;;;;;;;9.05;3.17;;;15.40;99.90;;;;;;5098538;28;20043;-80
2023/07/17 04:43:44;;;;;;;6.75;2.72;;;15.40;99.90;;;;;;5093105;28;20557;-80
2023/07/17 04:46:10;;;;;;;8.63;2.78;;;15.80;99.90;;;;;;5098943;28;20435;-79
2023/07/17 04:48:35;;;;;;;7.80;3.25;;;15.50;99.90;;;;;;5093310;28;20047;-79
2023/07/17 04:51:01;;;;;;;6.10;2.83;;;15.50;99.90;;;;;;5092943;28;20075;-80
2023/07/17 04:53:27;;;;;;;9.05;3.22;;;15.50;99.90;;;;;;5080466;28;20032;-81
2023/07/17 04:55:52;;;;;;;6.57;2.95;;;15.60;99.90;;;;;;5078444;28;20081;-79
2023/07/17 04:58:18;;;;;;;10.95;3.25;;;15.60;99.90;;;;;;5101378;28;20051;-79
2023/07/17 05:00:46;;;;;;;7.15;2.58;;;15.60;99.90;;;;;;5099018;28;20409;-79
2023/07/17 05:03:16;;;;;;;6.47;2.70;;;15.60;99.90;;;;;;5094287;28;20035;-79
2023/07/17 05:05:47;;;;;;;5.88;3.08;;;15.80;99.90;;;;;;5092987;28;20048;-79
2023/07/17 05:08:12;;;;;;;8.73;2.83;;;15.80;99.90;;;;;;5096148;28;20065;-79
2023/07/17 05:10:38;;;;;;;6.88;3.08;;;15.80;99.90;;;;;;5108142;27;20467;-80
2023/07/17 05:13:03;;;;;;;8.93;3.30;;;15.80;99.90;;;;;;5090674;28;20051;-79
2023/07/17 05:15:29;;;;;;;7.30;3.20;;;15.90;99.90;;;;;;5098948;28;20055;-78
2023/07/17 05:17:55;;;;;;;5.57;3.08;;;15.90;99.90;;;;;;5093041;28;20409;-79
2023/07/17 05:20:20;;;;;;;7.28;2.83;;;16.00;99.90;;;;;;5093139;28;20048;-79
2023/07/17 05:22:47;;;;;;;5.68;2.70;;;16.40;99.90;;;;;;5092655;28;20056;-79
2023/07/17 05:25:12;;;;;;;8.85;3.88;;;16.10;99.90;;;;;;5099841;28;20100;-79
2023/07/17 05:27:38;;;;;;;8.38;3.33;;;16.50;99.90;;;;;;5090546;28;20044;-80
2023/07/17 05:30:05;;;;;;;6.53;2.92;;;16.20;99.90;;;;;;5082119;28;20044;-79
2023/07/17 05:32:30;;;;;;;6.80;3.15;;;16.30;99.90;;;;;;5099338;28;20048;-79
2023/07/17 05:34:56;;;;;;;7.72;3.40;;;16.30;99.90;;;;;;5102793;28;20100;-79
2023/07/17 05:37:22;;;;;;;7.28;3.40;;;16.50;99.90;;;;;;5099626;28;20105;-80
2023/07/17 05:39:47;;;;;;;8.75;3.53;;;16.60;99.90;;;;;;5091043;28;20397;-81
2023/07/17 05:42:13;;;;;;;5.50;3.33;;;17.00;99.90;;;;;;5082850;28;20090;-81
2023/07/17 05:44:39;;;;;;;8.10;3.30;;;17.30;99.90;;;;;;5098857;28;20074;-80
2023/07/17 05:47:05;;;;;;;7.70;3.10;;;18.20;99.90;;;;;;5092718;28;20063;-80
2023/07/17 05:49:31;;;;;;;6.95;3.22;;;19.30;99.90;;;;;;5091863;28;20055;-81
2023/07/17 05:51:57;;;;;;;8.38;3.20;;;20.30;99.90;;;;;;5094915;28;20052;-81
2023/07/17 05:54:22;;;;;;;6.60;3.17;;;20.90;99.90;;;;;;5092008;28;20047;-78
2023/07/17 05:56:48;;;;;;;4.82;2.90;;;20.90;99.90;;;;;;5096034;28;20044;-82
2023/07/17 05:59:14;;;;;;;6.13;3.30;;;20.30;99.90;;;;;;5078644;28;20036;-82
2023/07/17 06:01:39;;;;;;;6.50;3.60;;;20.10;99.90;;;;;;5079125;28;20122;-83
2023/07/17 06:04:05;;;;;;;6.93;3.20;;;20.00;99.90;;;;;;5094032;28;20456;-82
2023/07/17 06:06:31;;;;;;;10.43;3.25;;;21.00;99.90;;;;;;5077284;28;20082;-85
2023/07/17 06:09:00;;;;;;;7.13;3.10;;;21.30;99.90;;;;;;5070514;28;20071;-83
2023/07/17 06:11:25;;;;;;;6.40;3.30;;;21.30;99.90;;;;;;5098094;28;20032;-84
2023/07/17 06:13:51;;;;;;;9.07;3.88;;;21.80;99.90;;;;;;5099316;28;20043;-82
2023/07/17 06:16:17;;;;;;;6.70;3.60;;;21.30;99.90;;;;;;5094723;28;20573;-83
2023/07/17 06:18:43;;;;;;;9.93;3.80;;;21.60;99.90;;;;;;5093450;28;20093;-83
2023/07/17 06:21:08;;;;;;;7.30;3.65;;;21.40;99.90;;;;;;5086174;28;20481;-82
2023/07/17 06:23:34;;;;;;;11.52;4.20;;;21.50;99.90;;;;;;5097134;28;20063;-82
2023/07/17 06:26:00;;;;;;;9.05;3.65;;;21.20;99.90;;;;;;5077619;28;20044;-82
2023/07/17 06:28:26;;;;;;;11.68;5.07;;;21.60;99.90;;;;;;5096062;28;20734;-84
2023/07/17 06:30:53;;;;;;;9.07;3.80;;;21.80;99.90;;;;;;5100281;28;20051;-83
2023/07/17 06:33:18;;;;;;;6.55;3.45;;;22.60;99.90;;;;;;5104973;28;20040;-86
2023/07/17 06:35:44;;;;;;;7.30;3.42;;;22.80;99.90;;;;;;5087971;28;20040;-83
2023/07/17 06:38:10;;;;;;;11.15;3.90;;;22.40;99.90;;;;;;5092858;28;20091;-84
2023/07/17 06:40:37;;;;;;;6.53;3.42;;;21.40;99.90;;;;;;5087057;28;20075;-85
2023/07/17 06:43:03;;;;;;;7.82;3.53;;;20.80;99.90;;;;;;5094219;28;20058;-85
2023/07/17 06:45:29;;;;;;;7.07;3.53;;;20.30;99.90;;;;;;5095530;28;20118;-84
2023/07/17 06:47:54;;;;;;;8.00;3.65;;;19.90;99.90;;;;;;5095382;28;20047;-81
2023/07/17 06:50:20;;;;;;;5.22;3.67;;;19.70;99.90;;;;;;5094224;28;20039;-83
2023/07/17 06:52:45;;;;;;;12.57;4.38;;;19.20;99.90;;;;;;5096507;28;20051;-82
2023/07/17 06:55:11;;;;;;;9.77;3.78;;;19.30;99.90;;;;;;5094981;28;20074;-81
2023/07/17 06:57:37;;;;;;;7.20;3.95;;;19.30;99.90;;;;;;5096181;28;20047;-82
2023/07/17 07:00:05;;;;;;;10.38;4.10;;;19.40;99.90;;;;;;5101978;28;20189;-83
2023/07/17 07:02:31;;;;;;;10.48;3.67;;;19.40;99.90;;;;;;5101415;28;20038;-83
2023/07/17 07:04:57;;;;;;;28.77;5.85;;;19.50;99.90;;;;;;5095211;28;20036;-80
2023/07/17 07:07:22;;;;;;;32.40;6.82;;;19.50;99.90;;;;;;5099030;28;20043;-83
2023/07/17 07:09:48;;;;;;;17.13;5.90;;;19.50;99.90;;;;;;5083753;28;20040;-81
2023/07/17 07:12:14;;;;;;;9.32;4.03;;;19.60;99.90;;;;;;5097876;28;20047;-80
2023/07/17 07:14:40;;;;;;;10.68;4.28;;;19.70;99.90;;;;;;5106844;28;20844;-81
2023/07/17 07:17:06;;;;;;;10.73;4.70;;;19.60;99.90;;;;;;5099409;28;20100;-81
2023/07/17 07:19:32;;;;;;;9.45;4.10;;;19.50;99.90;;;;;;5080350;28;20035;-80
2023/07/17 07:21:57;;;;;;;10.05;4.60;;;19.30;99.90;;;;;;5099543;28;20043;-79
2023/07/17 07:24:23;;;;;;;9.98;4.25;;;19.20;99.90;;;;;;5098345;28;20435;-82
2023/07/17 07:26:48;;;;;;;9.40;4.25;;;19.20;99.90;;;;;;5090380;28;20047;-80
2023/07/17 07:29:14;;;;;;;8.32;3.97;;;19.10;99.90;;;;;;5100399;28;20448;-81
2023/07/17 07:31:40;;;;;;;9.50;4.13;;;19.00;99.90;;;;;;5100802;28;20100;-81
2023/07/17 07:34:05;;;;;;;11.10;4.50;;;19.20;99.90;;;;;;5097886;28;20036;-82
2023/07/17 07:36:31;;;;;;;9.75;4.60;;;19.30;99.90;;;;;;5094571;28;20054;-81
2023/07/17 07:38:57;;;;;;;11.85;4.50;;;19.50;99.90;;;;;;5099907;28;20130;-81
2023/07/17 07:41:22;;;;;;;7.75;3.88;;;19.60;99.90;;;;;;5100183;28;20040;-80
2023/07/17 07:43:48;;;;;;;6.88;3.60;;;19.50;99.90;;;;;;5095388;28;20099;-81
2023/07/17 07:46:14;;;;;;;10.57;4.03;;;19.50;99.90;;;;;;5084996;28;20055;-80
2023/07/17 07:48:40;;;;;;;7.20;4.28;;;19.60;99.90;;;;;;5102352;28;20047;-80
2023/07/17 07:51:05;;;;;;;13.32;4.53;;;19.80;99.90;;;;;;5092473;28;20498;-80
2023/07/17 07:53:31;;;;;;;10.98;4.88;;;20.10;99.90;;;;;;5101992;28;20083;-81
2023/07/17 07:55:56;;;;;;;6.03;3.67;;;20.20;99.90;;;;;;5101410;28;20048;-80
2023/07/17 07:58:22;;;;;;;8.77;3.90;;;20.30;99.90;;;;;;5101307;28;20039;-81
2023/07/17 08:00:48;;;;;;;8.30;3.67;;;20.60;99.90;;;;;;5107567;28;20083;-81
2023/07/17 08:03:13;;;;;;;10.15;3.53;;;20.60;99.90;;;;;;5094123;28;20506;-81
2023/07/17 08:05:39;;;;;;;6.82;3.63;;;21.10;99.90;;;;;;5103043;28;20167;-81
2023/07/17 08:08:04;;;;;;;7.60;3.83;;;20.60;99.90;;;;;;5105932;28;20115;-79
2023/07/17 08:10:30;;;;;;;8.52;3.55;;;20.90;99.90;;;;;;5097228;28;20044;-79
2023/07/17 08:12:57;;;;;;;10.40;4.10;;;21.00;99.90;;;;;;5081185;28;20654;-80
2023/07/17 08:15:23;;;;;;;6.30;3.22;;;21.20;99.90;;;;;;5104649;28;20044;-80
2023/07/17 08:17:48;;;;;;;4.63;3.70;;;21.20;99.90;;;;;;5098265;28;20058;-79
2023/07/17 08:20:14;;;;;;;9.85;3.83;;;21.10;99.90;;;;;;5097843;28;20505;-80
2023/07/17 08:22:39;;;;;;;9.88;4.03;;;20.90;99.90;;;;;;5102511;28;20097;-81
2023/07/17 08:25:06;;;;;;;8.40;3.88;;;20.70;99.90;;;;;;5101229;28;20035;-82
2023/07/17 08:27:31;;;;;;;6.70;3.67;;;20.60;99.90;;;;;;5092621;28;20123;-79
2023/07/17 08:29:57;;;;;;;7.00;3.50;;;20.30;99.90;;;;;;5103234;28;20042;-77
2023/07/17 08:32:22;;;;;;;7.47;3.65;;;20.20;99.90;;;;;;5098109;28;20106;-78
2023/07/17 08:34:48;;;;;;;9.00;3.72;;;20.10;99.90;;;;;;5102104;28;20587;-80
2023/07/17 08:37:13;;;;;;;7.60;4.00;;;20.10;99.90;;;;;;5099910;28;20115;-80
2023/07/17 08:39:39;;;;;;;6.43;4.20;;;20.00;99.90;;;;;;5096471;28;20040;-80
2023/07/17 08:42:06;;;;;;;6.28;3.60;;;20.70;99.90;;;;;;5096368;28;20043;-80
2023/07/17 08:44:36;;;;;;;6.47;3.67;;;20.20;99.90;;;;;;5097910;28;20047;-80
2023/07/17 08:47:05;;;;;;;8.85;4.18;;;20.30;99.90;;;;;;5096842;28;20420;-81
2023/07/17 08:49:33;;;;;;;8.73;4.32;;;20.20;99.90;;;;;;5097167;28;20156;-80
2023/07/17 08:51:59;;;;;;;8.82;3.80;;;19.80;99.90;;;;;;5095045;28;20375;-81
2023/07/17 08:54:26;;;;;;;10.82;4.20;;;19.70;99.90;;;;;;5095827;28;20421;-80
2023/07/17 08:56:52;;;;;;;9.20;3.60;;;19.50;99.90;;;;;;5098303;28;20050;-81
2023/07/17 08:59:20;;;;;;;5.22;3.55;;;19.80;99.90;;;;;;5093130;28;20036;-81
2023/07/17 09:01:50;;;;;;;8.25;3.58;;;19.70;99.90;;;;;;5072255;28;20067;-79
2023/07/17 09:04:16;;;;;;;5.82;3.53;;;19.80;99.90;;;;;;5104085;28;20189;-80
2023/07/17 09:06:42;;;;;;;16.92;5.03;;;19.80;99.90;;;;;;5095696;28;20056;-79
2023/07/17 09:09:10;;;;;;;10.57;4.00;;;19.80;99.90;;;;;;5100470;28;20057;-79
2023/07/17 09:11:36;;;;;;;6.47;4.00;;;19.80;99.90;;;;;;5092615;28;20043;-80
2023/07/17 09:14:03;;;;;;;11.32;4.47;;;19.80;99.90;;;;;;5078282;28;20044;-80
2023/07/17 09:16:29;;;;;;;7.88;3.53;;;20.10;99.90;;;;;;5097347;28;20116;-81
2023/07/17 09:18:55;;;;;;;7.95;4.20;;;20.30;99.90;;;;;;5096744;28;20516;-81
2023/07/17 09:21:24;;;;;;;6.45;3.65;;;20.60;99.90;;;;;;5098718;28;20127;-81
2023/07/17 09:23:55;;;;;;;7.05;3.80;;;20.70;99.90;;;;;;5091142;28;20813;-80
2023/07/17 09:26:29;;;;;;;10.63;4.30;;;20.70;99.90;;;;;;5099613;28;20047;-80
2023/07/17 09:28:57;;;;;;;10.80;4.13;;;20.60;99.90;;;;;;5080884;28;20051;-80
2023/07/17 09:31:29;;;;;;;6.57;3.00;;;20.60;99.90;;;;;;5094710;28;20040;-79
2023/07/17 09:33:59;;;;;;;5.97;3.08;;;20.30;99.90;;;;;;5095536;28;20042;-81
2023/07/17 09:36:25;;;;;;;9.02;3.47;;;20.20;99.90;;;;;;5096361;28;20443;-79
2023/07/17 09:38:55;;;;;;;9.95;2.83;;;20.60;99.90;;;;;;5095532;28;20109;-84
2023/07/17 09:41:25;;;;;;;6.20;2.97;;;20.30;99.90;;;;;;5097091;28;20042;-83
2023/07/17 09:44:07;;;;;;;6.57;2.83;;;20.80;99.90;;;;;;5079882;28;20090;-86
2023/07/17 09:46:36;;;;;;;;;;;20.50;99.90;;;;;;5097309;28;20826;-83
2023/07/17 09:49:09;;;;;;;7.72;2.83;;;20.30;99.70;;;;;;5077497;28;19920;-83
2023/07/17 09:51:37;;;;;;;9.30;3.00;;;20.10;99.90;;;;;;5077872;28;20454;-82
2023/07/17 09:54:03;;;;;;;31.48;4.82;;;20.20;99.90;;;;;;5096584;28;20070;-83
2023/07/17 09:56:31;;;;;;;24.33;4.07;;;20.00;99.90;;;;;;5096060;28;20065;-83
2023/07/17 09:59:13;;;;;;;4.68;2.50;;;20.30;99.90;;;;;;5077547;28;20081;-79
2023/07/17 10:01:44;;;;;;;4.85;2.13;;;20.50;99.90;;;;;;5091831;28;20043;-84
2023/07/17 10:04:11;;;;;;;4.83;2.57;;;20.70;99.50;;;;;;5098786;28;20039;-84
2023/07/17 10:06:41;;;;;;;4.85;2.80;;;20.80;98.40;;;;;;5099000;28;20560;-83
2023/07/17 10:09:10;;;;;;;7.32;2.08;;;21.20;96.90;;;;;;5095517;28;20473;-83
2023/07/17 10:11:36;;;;;;;4.80;2.20;;;21.30;95.50;;;;;;5093679;28;20138;-82
2023/07/17 10:14:02;;;;;;;4.20;2.30;;;21.50;94.60;;;;;;5089020;28;20170;-82
2023/07/17 10:16:28;;;;;;;4.80;2.00;;;21.50;94.20;;;;;;5099743;28;20055;-84
2023/07/17 10:18:55;;;;;;;8.43;2.10;;;21.50;93.20;;;;;;5094665;28;20058;-81
2023/07/17 10:21:21;;;;;;;4.18;2.30;;;21.80;92.70;;;;;;5090025;28;20583;-86
2023/07/17 10:23:49;;;;;;;5.15;2.63;;;21.50;92.50;;;;;;5095234;28;20513;-82
2023/07/17 10:26:21;;;;;;;5.05;2.10;;;21.70;92.50;;;;;;5095779;28;20040;-82
2023/07/17 10:28:48;;;;;;;;;;;21.80;91.90;;;;;;5092832;28;20096;-82
2023/07/17 10:31:24;;;;;;;3.63;2.20;;;21.70;90.10;;;;;;5098915;28;19930;-85
2023/07/17 10:33:51;;;;;;;4.60;2.30;;;21.70;91.70;;;;;;5094603;28;20039;-83
2023/07/17 10:36:18;;;;;;;6.07;2.28;;;21.70;91.40;;;;;;5073762;28;20563;-82
2023/07/17 10:38:50;;;;;;;4.28;2.50;;;21.80;91.00;;;;;;5101402;28;20463;-82
2023/07/17 10:41:16;;;;;;;;;;;21.80;89.90;;;;;;5100193;28;20050;-83
2023/07/17 10:43:57;;;;;;;4.95;2.20;;;21.80;85.30;;;;;;5088763;28;19923;-83
2023/07/17 10:46:29;;;;;;;3.85;2.30;;;21.90;87.60;;;;;;5089141;28;20416;-84
2023/07/17 10:49:08;;;;;;;5.25;2.60;;;21.90;88.40;;;;;;5089480;28;20035;-84
2023/07/17 10:51:34;;;;;;;3.95;2.53;;;21.70;87.00;;;;;;5072014;28;20517;-84
2023/07/17 10:53:59;;;;;;;7.30;2.45;;;21.50;89.90;;;;;;5100890;28;20463;-83
2023/07/17 10:56:25;;;;;;;4.88;2.50;;;21.50;90.30;;;;;;5096364;28;20048;-82
2023/07/17 10:58:52;;;;;;;7.47;2.88;;;21.30;90.40;;;;;;5107930;28;20131;-83
2023/07/17 11:01:18;;;;;;;5.00;2.67;;;21.20;90.70;;;;;;5106018;28;20545;-82
2023/07/17 11:03:47;;;;;;;5.38;2.80;;;20.90;91.10;;;;;;5108145;28;20123;-82
2023/07/17 11:06:17;;;;;;;5.65;2.30;;;21.00;91.50;;;;;;5105438;28;20039;-82
2023/07/17 11:08:48;;;;;;;4.95;2.20;;;21.10;91.80;;;;;;5097417;28;20075;-83
2023/07/17 11:11:13;;;;;;;6.65;2.53;;;21.40;91.70;;;;;;5096779;28;20118;-81
2023/07/17 11:13:39;;;;;;;6.13;2.45;;;21.60;91.50;;;;;;5077329;28;20119;-81
2023/07/17 11:16:10;;;;;;;6.32;2.45;;;22.00;91.80;;;;;;5094911;28;20052;-84
2023/07/17 11:18:45;;;;;;;3.80;2.00;;;22.30;91.10;;;;;;5096941;28;20054;-82
2023/07/17 11:21:12;;;;;;;5.47;1.85;;;22.30;89.10;;;;;;5073707;28;20040;-83
2023/07/17 11:23:49;;;;;;;4.20;1.83;;;22.40;85.10;;;;;;5093815;28;20043;-84
2023/07/17 11:26:26;;;;;;;5.13;2.00;;;22.50;84.00;;;;;;5076448;28;20050;-82
2023/07/17 11:28:54;;;;;;;3.50;2.00;;;22.60;82.70;;;;;;5094044;28;20077;-83
2023/07/17 11:31:23;;;;;;;4.53;2.55;;;22.30;84.80;;;;;;5095742;28;20060;-83
2023/07/17 11:34:00;;;;;;;3.35;2.13;;;22.50;85.30;;;;;;5091930;28;20051;-85
2023/07/17 11:36:38;;;;;;;3.90;1.88;;;22.60;86.60;;;;;;5092813;28;20040;-82
2023/07/17 11:39:21;;;;;;;5.38;1.90;;;23.10;83.90;;;;;;5093826;28;20163;-84
2023/07/17 11:41:48;;;;;;;5.35;2.13;;;22.80;81.80;;;;;;5093583;28;20056;-83
2023/07/17 11:44:25;;;;;;;8.43;2.58;;;23.10;82.50;;;;;;5097282;28;20082;-83
2023/07/17 11:46:56;;;;;;;7.50;2.10;;;23.00;81.20;;;;;;5084334;28;20051;-85
2023/07/17 11:49:25;;;;;;;7.72;1.95;;;23.10;79.80;;;;;;5087519;28;20129;-87
2023/07/17 11:51:51;;;;;;;9.98;2.75;;;23.30;80.50;;;;;;5101803;28;20074;-84
2023/07/17 11:54:17;;;;;;;4.05;1.75;;;23.10;80.80;;;;;;5109256;28;20114;-82
2023/07/17 11:56:44;;;;;;;8.15;2.28;;;23.10;81.00;;;;;;5097673;28;20131;-85
2023/07/17 11:59:20;;;;;;;12.52;4.57;;;23.20;81.30;;;;;;5098988;28;20044;-85
2023/07/17 12:01:47;;;;;;;4.93;1.98;;;23.30;81.30;;;;;;5102009;28;20059;-87
2023/07/17 12:04:20;;;;;;;5.00;1.88;;;23.40;80.20;;;;;;5092442;28;20044;-84
2023/07/17 12:06:46;;;;;;;4.15;1.83;;;23.20;80.50;;;;;;5100661;28;20047;-85
2023/07/17 12:09:12;;;;;;;6.25;2.38;;;23.20;80.50;;;;;;5094343;28;20043;-86
2023/07/17 12:11:38;;;;;;;35.55;5.40;;;23.20;79.40;;;;;;5088227;28;20040;-87
2023/07/17 12:14:04;;;;;;;4.60;1.58;;;23.10;79.10;;;;;;5077689;28;20076;-84
2023/07/17 12:16:30;;;;;;;6.07;1.92;;;23.30;79.90;;;;;;5089652;28;20075;-86
2023/07/17 12:18:55;;;;;;;3.00;1.50;;;23.10;79.00;;;;;;5098599;28;20036;-86
2023/07/17 12:21:21;;;;;;;6.80;1.85;;;23.00;78.80;;;;;;5096564;28;20398;-86
2023/07/17 12:23:46;;;;;;;5.05;1.50;;;23.10;78.70;;;;;;5099163;28;20057;-85
2023/07/17 12:26:12;;;;;;;4.18;1.70;;;22.30;78.20;;;;;;5102551;28;20036;-85
2023/07/17 12:28:38;;;;;;;5.53;1.92;;;22.30;79.30;;;;;;5098630;28;20086;-84
2023/07/17 12:31:03;;;;;;;4.45;1.60;;;22.30;80.20;;;;;;5096363;28;20074;-85
2023/07/17 12:33:29;;;;;;;4.70;1.90;;;22.10;80.80;;;;;;5090053;28;20055;-85
2023/07/17 12:35:57;;;;;;;8.38;1.85;;;21.90;82.40;;;;;;5099098;28;20047;-85
2023/07/17 12:38:23;;;;;;;4.88;1.90;;;21.80;82.20;;;;;;5097146;28;20083;-86
2023/07/17 12:40:49;;;;;;;6.30;2.30;;;21.50;84.30;;;;;;5098030;28;20098;-85
2023/07/17 12:43:15;;;;;;;3.88;1.92;;;21.10;88.10;;;;;;5093414;28;20049;-86
2023/07/17 12:45:41;;;;;;;3.65;1.70;;;20.60;90.30;;;;;;5098400;28;20050;-86